createdAt,value
2022-09-05T00:00:53.449Z,101897.19
2022-09-05T00:06:01.730Z,101892.00
2022-09-05T00:11:42.116Z,101893.78
2022-09-05T00:16:30.264Z,101894.72
2022-09-05T00:24:21.367Z,101889.59
2022-09-05T00:26:50.276Z,101894.91
2022-09-05T00:31:55.438Z,101900.19
2022-09-05T00:36:49.215Z,101895.88
2022-09-05T00:41:40.362Z,101883.75
2022-09-05T00:46:35.784Z,101882.00
2022-09-05T00:51:34.807Z,101881.22
2022-09-05T00:56:42.714Z,101876.09
2022-09-05T01:01:41.765Z,101881.38
2022-09-05T01:06:37.042Z,101871.84
2022-09-05T01:11:38.116Z,101881.47
2022-09-05T01:16:32.119Z,101883.34
2022-09-05T01:21:40.787Z,101877.31
2022-09-05T01:26:50.921Z,101881.75
2022-09-05T01:31:48.249Z,101874.88
2022-09-05T01:36:58.499Z,101874.91
2022-09-05T01:41:52.754Z,101874.97
2022-09-05T01:46:47.477Z,101868.00
2022-09-05T01:51:43.380Z,101870.75
2022-09-05T01:56:38.818Z,101873.44
2022-09-05T02:01:33.389Z,101864.78
2022-09-05T02:06:37.137Z,101870.97
2022-09-05T02:11:41.592Z,101873.69
2022-09-05T02:16:38.458Z,101871.97
2022-09-05T02:21:56.140Z,101871.19
2022-09-05T02:26:57.423Z,101886.13
2022-09-05T02:31:51.245Z,101889.69
2022-09-05T02:36:47.462Z,101883.66
2022-09-05T02:45:07.954Z,101880.19
2022-09-05T02:46:58.719Z,101875.00
2022-09-05T02:57:26.343Z,101876.78
2022-09-05T02:57:36.377Z,101886.41
2022-09-05T03:02:32.553Z,101873.38
2022-09-05T03:07:36.846Z,101873.41
2022-09-05T03:12:41.702Z,101867.38
2022-09-05T03:17:49.681Z,101864.81
2022-09-05T03:22:55.043Z,101867.47
2022-09-05T03:28:04.297Z,101872.81
2022-09-05T03:33:09.844Z,101872.00
2022-09-05T03:38:16.092Z,101872.91
2022-09-05T03:43:20.296Z,101865.97
2022-09-05T03:48:28.838Z,101873.00
2022-09-05T03:57:15.710Z,101874.78
2022-09-05T03:59:10.663Z,101864.34
2022-09-05T04:08:15.900Z,101871.34
2022-09-05T04:09:37.269Z,101874.91
2022-09-05T04:14:36.154Z,101880.16
2022-09-05T04:19:33.219Z,101876.72
2022-09-05T04:24:28.392Z,101869.78
2022-09-05T04:29:21.258Z,101874.16
2022-09-05T04:34:30.689Z,101876.84
2022-09-05T04:39:30.683Z,101874.25
2022-09-05T04:44:26.789Z,101879.53
2022-09-05T04:49:19.210Z,101876.91
2022-09-05T04:54:20.661Z,101885.66
2022-09-05T05:01:40.702Z,101890.91
2022-09-05T05:06:10.665Z,101888.31
2022-09-05T05:09:44.880Z,101904.03
2022-09-05T05:18:06.171Z,101911.88
2022-09-05T05:19:57.844Z,101900.56
2022-09-05T05:25:06.807Z,101892.75
2022-09-05T05:30:27.126Z,101893.63
2022-09-05T05:35:19.224Z,101893.66
2022-09-05T05:40:11.867Z,101897.13
2022-09-05T05:45:02.902Z,101903.22
2022-09-05T05:50:02.735Z,101906.66
2022-09-05T05:55:07.355Z,101915.38
2022-09-05T06:00:14.812Z,101919.72
2022-09-05T06:05:29.629Z,101922.25
2022-09-05T06:15:06.531Z,101931.78
2022-09-05T06:16:09.016Z,101928.22
2022-09-05T06:22:06.006Z,101930.72
2022-09-05T06:26:41.643Z,101920.16
2022-09-05T06:31:45.321Z,101920.94
2022-09-05T06:36:44.016Z,101911.25
2022-09-05T06:41:40.694Z,101927.69
2022-09-05T06:46:55.084Z,101929.38
2022-09-05T06:52:28.570Z,101931.88
2022-09-05T06:57:23.362Z,101931.75
2022-09-05T07:02:23.789Z,101938.59
2022-09-05T07:07:42.450Z,101940.25
2022-09-05T07:12:42.139Z,101935.72
2022-09-05T07:18:06.238Z,101940.81
2022-09-05T07:23:25.780Z,101944.13
2022-09-05T07:28:28.861Z,101951.72
2022-09-05T07:33:24.713Z,101962.66
2022-09-05T07:38:20.768Z,101959.66
2022-09-05T07:43:18.231Z,101967.16
2022-09-05T07:48:13.270Z,101975.63
2022-09-05T07:56:52.410Z,101972.72
2022-09-05T07:58:21.871Z,101964.56
2022-09-05T08:03:13.583Z,101968.78
2022-09-05T08:08:05.829Z,101965.16
2022-09-05T08:13:23.661Z,101969.47
2022-09-05T08:18:15.982Z,101979.03
2022-09-05T08:23:10.077Z,101978.91
2022-09-05T08:28:06.407Z,101983.81
2022-09-05T08:33:10.180Z,101986.75
2022-09-05T08:38:03.461Z,101991.44
2022-09-05T08:46:36.772Z,101991.75
2022-09-05T08:48:14.394Z,101991.81
2022-09-05T08:53:28.161Z,101983.25
2022-09-05T08:58:36.074Z,101980.09
2022-09-05T09:03:28.819Z,101976.06
2022-09-05T09:08:27.010Z,101962.94
2022-09-05T09:13:26.783Z,101963.47
2022-09-05T09:18:17.823Z,101957.75
2022-09-05T09:23:09.023Z,101951.13
2022-09-05T09:28:50.651Z,101943.91
2022-09-05T09:33:46.213Z,101942.69
2022-09-05T09:38:41.334Z,101942.41
2022-09-05T09:43:34.823Z,101933.88
2022-09-05T09:48:48.334Z,101944.38
2022-09-05T09:53:47.733Z,101944.69
2022-09-05T09:58:45.808Z,101936.94
2022-09-05T10:10:11.525Z,101928.16
2022-09-05T10:10:54.005Z,101924.22
2022-09-05T10:14:49.740Z,101917.47
2022-09-05T10:20:10.028Z,101916.31
2022-09-05T10:25:18.912Z,101906.16
2022-09-05T10:30:13.909Z,101893.25
2022-09-05T10:35:21.112Z,101882.78
2022-09-05T10:40:16.552Z,101883.06
2022-09-05T10:45:08.183Z,101879.75
2022-09-05T10:50:04.998Z,101892.13
2022-09-05T10:55:13.940Z,101881.91
2022-09-05T11:02:23.156Z,101873.69
2022-09-05T11:05:27.488Z,101869.75
2022-09-05T11:10:20.848Z,101875.41
2022-09-05T11:15:25.224Z,101872.75
2022-09-05T11:20:35.378Z,101877.81
2022-09-05T11:25:40.494Z,101870.25
2022-09-05T11:30:39.857Z,101876.28
2022-09-05T11:40:02.213Z,101875.78
2022-09-05T11:41:08.427Z,101864.00
2022-09-05T11:46:22.379Z,101867.31
2022-09-05T11:51:33.847Z,101863.06
2022-09-05T11:56:44.069Z,101863.53
2022-09-05T12:01:44.255Z,101855.41
2022-09-05T12:06:49.655Z,101854.34
2022-09-05T12:11:47.124Z,101837.72
2022-09-05T12:16:52.283Z,101841.63
2022-09-05T12:21:50.418Z,101835.56
2022-09-05T12:27:41.391Z,101833.91
2022-09-05T12:33:34.009Z,101829.72
2022-09-05T12:40:16.646Z,101834.75
2022-09-05T12:42:28.182Z,101831.06
2022-09-05T12:47:26.427Z,101828.75
2022-09-05T12:52:21.840Z,101828.22
2022-09-05T13:01:09.551Z,101843.19
2022-09-05T13:03:15.334Z,101827.56
2022-09-05T13:07:44.949Z,101822.59
2022-09-05T13:14:49.488Z,101821.06
2022-09-05T13:17:53.283Z,101816.75
2022-09-05T13:22:50.966Z,101820.63
2022-09-05T13:27:47.429Z,101814.63
2022-09-05T13:38:06.156Z,101808.25
2022-09-05T13:38:29.073Z,101804.03
2022-09-05T13:43:09.725Z,101808.16
2022-09-05T13:48:18.868Z,101793.69
2022-09-05T13:53:17.975Z,101789.88
2022-09-05T13:58:10.753Z,101788.25
2022-09-05T14:03:39.027Z,101776.63
2022-09-05T14:08:40.643Z,101774.78
2022-09-05T14:13:35.587Z,101761.78
2022-09-05T14:18:27.473Z,101764.44
2022-09-05T14:23:18.410Z,101765.31
2022-09-05T14:28:16.165Z,101756.22
2022-09-05T14:37:48.387Z,101755.38
2022-09-05T14:38:42.148Z,101750.78
2022-09-05T14:43:56.620Z,101746.81
2022-09-05T14:48:57.090Z,101750.97
2022-09-05T14:54:00.705Z,101748.63
2022-09-05T15:02:48.384Z,101741.41
2022-09-05T15:04:42.391Z,101737.72
2022-09-05T15:12:14.138Z,101734.41
2022-09-05T15:14:56.305Z,101726.00
2022-09-05T15:20:06.737Z,101716.81
2022-09-05T15:25:12.147Z,101716.72
2022-09-05T15:30:11.940Z,101716.16
2022-09-05T15:35:03.613Z,101716.78
2022-09-05T15:40:04.185Z,101716.34
2022-09-05T15:45:09.851Z,101714.69
2022-09-05T15:50:05.206Z,101721.09
2022-09-05T15:54:57.917Z,101714.34
2022-09-05T15:59:50.500Z,101712.84
2022-09-05T16:10:27.037Z,101711.69
2022-09-05T16:10:43.464Z,101715.09
2022-09-05T16:17:26.431Z,101706.13
2022-09-05T16:23:30.905Z,101695.06
2022-09-05T16:25:46.668Z,101691.25
2022-09-05T16:30:38.226Z,101690.19
2022-09-05T16:35:29.346Z,101701.09
2022-09-05T16:40:22.897Z,101697.38
2022-09-05T16:45:20.636Z,101700.72
2022-09-05T16:50:16.644Z,101690.78
2022-09-05T16:55:12.261Z,101689.78
2022-09-05T17:00:03.770Z,101694.72
2022-09-05T17:05:06.305Z,101684.56
2022-09-05T17:09:59.205Z,101678.91
2022-09-05T17:14:53.230Z,101688.25
2022-09-05T17:20:05.925Z,101692.19
2022-09-05T17:29:23.728Z,101698.94
2022-09-05T17:35:42.806Z,101693.78
2022-09-05T17:40:51.371Z,101692.22
2022-09-05T17:45:46.952Z,101696.69
2022-09-05T17:50:49.595Z,101704.75
2022-09-05T17:55:55.373Z,101722.88
2022-09-05T18:01:05.534Z,101744.94
2022-09-05T18:06:05.644Z,101768.47
2022-09-05T18:11:02.310Z,101779.41
2022-09-05T18:16:12.406Z,101772.25
2022-09-05T18:21:21.020Z,101763.25
2022-09-05T18:26:20.964Z,101746.22
2022-09-05T18:31:26.140Z,101737.28
2022-09-05T18:36:48.751Z,101744.84
2022-09-05T18:41:42.818Z,101739.22
2022-09-05T18:46:34.919Z,101720.41
2022-09-05T18:51:26.372Z,101693.50
2022-09-05T18:56:30.321Z,101669.31
2022-09-05T19:01:28.461Z,101696.25
2022-09-05T19:06:35.589Z,101734.53
2022-09-05T19:11:32.493Z,101714.69
2022-09-05T19:16:42.157Z,101722.75
2022-09-05T19:21:33.812Z,101730.72
2022-09-05T19:26:23.918Z,101744.69
2022-09-05T19:36:57.052Z,101804.06
2022-09-05T19:37:11.974Z,101827.69
2022-09-05T19:47:26.084Z,101843.44
2022-09-05T19:47:37.947Z,101849.53
2022-09-05T19:52:16.838Z,101852.28
2022-09-05T19:57:08.001Z,101820.72
2022-09-05T20:02:01.703Z,101794.75
2022-09-05T20:06:53.368Z,101799.44
2022-09-05T20:11:45.702Z,101799.63
2022-09-05T20:16:36.882Z,101800.75
2022-09-05T20:21:30.990Z,101832.31
2022-09-05T20:26:23.563Z,101857.69
2022-09-05T20:31:17.087Z,101876.84
2022-09-05T20:43:08.621Z,101888.25
2022-09-05T20:43:19.530Z,101909.16
2022-09-05T20:50:11.622Z,101939.22
2022-09-05T20:54:21.742Z,101938.63
2022-09-05T20:57:15.105Z,101919.84
2022-09-05T21:02:06.589Z,101900.91
2022-09-05T21:07:10.764Z,101905.66
2022-09-05T21:12:06.313Z,101894.59
2022-09-05T21:17:04.854Z,101858.78
2022-09-05T21:22:06.018Z,101840.94
2022-09-05T21:26:55.488Z,101829.53
2022-09-05T21:31:49.089Z,101823.41
2022-09-05T21:36:47.100Z,101812.81
2022-09-05T21:41:40.010Z,101824.53
2022-09-05T21:47:43.876Z,101793.97
2022-09-05T21:51:48.197Z,101764.25
2022-09-05T21:59:26.028Z,101810.09
2022-09-05T22:01:53.372Z,101814.63
2022-09-05T22:06:48.695Z,101829.56
2022-09-05T22:11:41.275Z,101826.06
2022-09-05T22:16:31.855Z,101811.50
2022-09-05T22:21:33.222Z,101810.72
2022-09-05T22:26:25.006Z,101779.31
2022-09-05T22:31:17.401Z,101749.50
2022-09-05T22:36:07.005Z,101732.78
2022-09-05T22:40:58.678Z,101697.88
2022-09-05T22:45:48.980Z,101654.56
2022-09-05T22:50:41.614Z,101635.50
2022-09-05T22:55:33.586Z,101634.81
2022-09-05T23:00:23.134Z,101618.19
2022-09-05T23:05:13.125Z,101610.31
2022-09-05T23:10:06.624Z,101589.31
2022-09-05T23:14:56.311Z,101598.00
2022-09-05T23:19:45.711Z,101590.13
2022-09-05T23:24:35.423Z,101587.44
2022-09-05T23:29:27.564Z,101596.19
2022-09-05T23:34:17.029Z,101610.84
2022-09-05T23:39:06.516Z,101630.06
2022-09-05T23:43:56.007Z,101649.28
2022-09-05T23:48:48.005Z,101683.41
2022-09-05T23:53:37.978Z,101691.28
2022-09-05T23:58:27.569Z,101698.25
